createdAt,value
2022-12-26T00:01:43.079Z,100227.91
2022-12-26T00:04:50.780Z,100172.88
2022-12-26T00:07:02.201Z,100229.91
2022-12-26T00:09:34.571Z,100237.78
2022-12-26T00:12:04.028Z,100226.25
2022-12-26T00:14:32.839Z,100227.38
2022-12-26T00:17:02.489Z,100226.25
2022-12-26T00:19:31.695Z,100220.88
2022-12-26T00:22:01.165Z,100221.69
2022-12-26T00:24:30.391Z,100231.59
2022-12-26T00:27:01.987Z,100217.19
2022-12-26T00:29:31.138Z,100224.22
2022-12-26T00:32:00.468Z,100217.19
2022-12-26T00:34:29.904Z,100144.41
2022-12-26T00:36:58.796Z,100137.25
2022-12-26T00:39:28.325Z,100208.13
2022-12-26T00:41:57.336Z,100221.53
2022-12-26T00:44:28.896Z,100211.81
2022-12-26T00:46:57.717Z,100206.47
2022-12-26T00:49:26.970Z,100206.47
2022-12-26T00:51:56.090Z,100217.19
2022-12-26T00:54:25.452Z,100196.59
2022-12-26T00:56:54.493Z,100199.13
2022-12-26T00:59:23.551Z,100201.09
2022-12-26T01:01:54.537Z,100186.69
2022-12-26T01:04:23.970Z,100192.03
2022-12-26T01:06:53.275Z,100194.72
2022-12-26T01:09:22.205Z,100197.41
2022-12-26T01:11:51.339Z,100192.03
2022-12-26T01:14:20.347Z,100185.88
2022-12-26T01:16:49.447Z,100086.66
2022-12-26T01:19:20.992Z,100168.91
2022-12-26T01:21:50.077Z,100174.28
2022-12-26T01:24:19.283Z,100174.28
2022-12-26T01:26:48.201Z,100165.22
2022-12-26T01:29:17.632Z,100171.59
2022-12-26T01:31:47.028Z,100175.94
2022-12-26T01:34:15.939Z,100169.78
2022-12-26T01:36:47.041Z,100158.66
2022-12-26T01:39:16.293Z,100158.19
2022-12-26T01:41:45.266Z,100154.50
2022-12-26T01:44:47.637Z,100156.22
2022-12-26T01:47:17.540Z,100165.22
2022-12-26T01:49:50.119Z,100159.88
2022-12-26T01:52:26.207Z,100154.50
2022-12-26T01:54:57.005Z,100142.09
2022-12-26T01:57:30.157Z,100141.09
2022-12-26T02:00:01.039Z,100142.09
2022-12-26T02:02:31.877Z,100134.75
2022-12-26T02:05:17.964Z,100134.75
2022-12-26T02:07:49.438Z,100129.38
2022-12-26T02:10:24.637Z,100129.38
2022-12-26T02:12:53.266Z,100131.06
2022-12-26T02:15:22.527Z,100141.78
2022-12-26T02:17:51.243Z,100119.63
2022-12-26T02:20:23.582Z,100041.50
2022-12-26T02:23:36.994Z,100120.34
2022-12-26T02:26:35.336Z,100124.03
2022-12-26T02:29:32.177Z,100111.91
2022-12-26T02:32:12.456Z,100116.94
2022-12-26T02:34:52.996Z,100112.59
2022-12-26T02:37:29.487Z,100109.06
2022-12-26T02:40:28.869Z,100107.25
2022-12-26T02:43:01.955Z,100109.06
2022-12-26T02:45:57.344Z,100099.19
2022-12-26T02:48:38.441Z,100089.31
2022-12-26T02:51:37.996Z,100081.44
2022-12-26T02:54:34.326Z,100082.25
2022-12-26T02:57:24.891Z,100081.44
2022-12-26T03:00:16.866Z,100076.88
2022-12-26T03:03:08.063Z,100086.78
2022-12-26T03:06:01.152Z,100082.41
2022-12-26T03:08:50.629Z,100079.72
2022-12-26T03:11:37.464Z,100076.06
2022-12-26T03:14:16.336Z,100070.69
2022-12-26T03:17:06.129Z,100071.00
2022-12-26T03:19:38.076Z,100064.47
2022-12-26T03:22:31.039Z,100063.63
2022-12-26T03:25:19.703Z,100055.59
2022-12-26T03:27:48.834Z,100072.38
2022-12-26T03:30:35.923Z,99991.88
2022-12-26T03:33:05.336Z,100059.97
2022-12-26T03:35:34.963Z,100055.59
2022-12-26T03:38:10.300Z,100054.63
2022-12-26T03:41:08.313Z,100051.94
2022-12-26T03:44:11.261Z,100050.91
2022-12-26T03:47:10.968Z,100042.19
2022-12-26T03:50:03.001Z,100040.34
2022-12-26T03:52:58.008Z,99942.88
2022-12-26T03:55:51.580Z,100040.19
2022-12-26T03:58:45.186Z,100038.53
2022-12-26T04:01:36.584Z,100038.53
2022-12-26T04:04:24.874Z,99956.88
2022-12-26T04:07:15.147Z,100040.19
2022-12-26T04:10:05.278Z,99965.06
2022-12-26T04:12:55.348Z,100024.41
2022-12-26T04:15:47.312Z,100022.75
2022-12-26T04:18:38.229Z,100025.13
2022-12-26T04:21:36.272Z,100022.44
2022-12-26T04:24:26.972Z,99938.28
2022-12-26T04:27:17.851Z,100022.44
2022-12-26T04:30:05.800Z,100017.38
2022-12-26T04:32:58.805Z,100017.06
2022-12-26T04:35:49.924Z,100019.75
2022-12-26T04:38:40.525Z,100013.38
2022-12-26T04:41:28.596Z,100015.06
2022-12-26T04:44:06.925Z,100001.81
2022-12-26T04:46:40.801Z,99930.94
2022-12-26T04:49:28.506Z,100013.38
2022-12-26T04:51:58.925Z,100012.53
2022-12-26T04:54:29.290Z,100017.06
2022-12-26T04:56:58.516Z,100008.00
2022-12-26T04:59:27.911Z,99997.59
2022-12-26T05:02:16.158Z,100000.28
2022-12-26T05:05:02.452Z,99994.59
2022-12-26T05:07:50.445Z,99914.88
2022-12-26T05:10:21.751Z,99995.31
2022-12-26T05:12:51.101Z,99994.44
2022-12-26T05:15:20.715Z,99993.59
2022-12-26T05:18:09.602Z,99988.22
2022-12-26T05:20:58.365Z,99985.56
2022-12-26T05:23:46.096Z,99891.44
2022-12-26T05:26:34.648Z,99974.81
2022-12-26T05:29:05.640Z,99962.06
2022-12-26T05:31:36.881Z,99964.09
2022-12-26T05:34:07.300Z,99958.72
2022-12-26T05:36:40.751Z,99945.31
2022-12-26T05:39:10.981Z,99950.69
2022-12-26T05:41:41.152Z,99879.03
2022-12-26T05:44:11.499Z,99947.03
2022-12-26T05:46:43.020Z,99952.41
2022-12-26T05:49:15.288Z,99943.34
2022-12-26T05:51:44.454Z,99938.97
2022-12-26T05:54:13.695Z,99924.72
2022-12-26T05:56:49.003Z,99925.56
2022-12-26T05:59:18.132Z,99929.06
2022-12-26T06:01:47.350Z,99928.25
2022-12-26T06:04:18.263Z,99932.59
2022-12-26T06:06:46.874Z,99927.25
2022-12-26T06:09:15.974Z,99931.75
2022-12-26T06:11:48.721Z,99927.25
2022-12-26T06:14:18.248Z,99923.06
2022-12-26T06:16:47.746Z,99912.81
2022-12-26T06:19:18.902Z,99918.19
2022-12-26T06:21:48.201Z,99910.31
2022-12-26T06:24:17.089Z,99905.78
2022-12-26T06:26:45.781Z,99905.78
2022-12-26T06:29:15.117Z,99896.72
2022-12-26T06:31:43.778Z,99891.38
2022-12-26T06:34:13.363Z,99888.03
2022-12-26T06:36:44.620Z,99893.25
2022-12-26T06:39:14.079Z,99892.38
2022-12-26T06:41:43.520Z,99892.38
2022-12-26T06:44:17.914Z,99897.06
2022-12-26T06:46:47.532Z,99901.28
2022-12-26T06:49:17.274Z,99885.50
2022-12-26T06:51:48.463Z,99896.72
2022-12-26T06:54:17.933Z,99888.03
2022-12-26T06:56:47.098Z,99890.41
2022-12-26T06:59:15.727Z,99886.84
2022-12-26T07:01:44.998Z,99793.59
2022-12-26T07:04:15.072Z,99884.34
2022-12-26T07:06:43.760Z,99885.19
2022-12-26T07:09:17.424Z,99886.00
2022-12-26T07:11:48.282Z,99814.41
2022-12-26T07:14:18.091Z,99824.47
2022-12-26T07:16:47.726Z,99875.28
2022-12-26T07:19:18.999Z,99878.97
2022-12-26T07:21:47.904Z,99866.59
2022-12-26T07:24:21.949Z,99869.91
2022-12-26T07:26:51.395Z,99874.47
2022-12-26T07:29:20.751Z,99877.16
2022-12-26T07:31:49.924Z,99875.28
2022-12-26T07:34:19.251Z,99869.91
2022-12-26T07:36:48.067Z,99868.25
2022-12-26T07:39:18.914Z,99861.88
2022-12-26T07:41:59.778Z,99860.88
2022-12-26T07:44:30.460Z,99866.59
2022-12-26T07:47:00.726Z,99858.38
2022-12-26T07:49:30.439Z,99862.88
2022-12-26T07:52:00.329Z,99849.47
2022-12-26T07:54:32.861Z,99852.16
2022-12-26T07:57:22.354Z,99790.31
2022-12-26T07:59:53.480Z,99845.13
2022-12-26T08:02:23.363Z,99857.53
2022-12-26T08:04:52.753Z,99856.66
2022-12-26T08:07:21.310Z,99850.31
2022-12-26T08:09:52.602Z,99775.59
2022-12-26T08:12:25.001Z,99841.44
2022-12-26T08:14:53.743Z,99841.44
2022-12-26T08:17:22.385Z,99838.75
2022-12-26T08:19:51.599Z,99834.41
2022-12-26T08:22:20.833Z,99841.44
2022-12-26T08:24:52.151Z,99829.03
2022-12-26T08:27:21.056Z,99832.53
2022-12-26T08:29:50.114Z,99830.69
2022-12-26T08:32:19.189Z,99814.63
2022-12-26T08:34:48.231Z,99816.28
2022-12-26T08:37:17.504Z,99817.97
2022-12-26T08:39:47.019Z,99815.47
2022-12-26T08:42:18.489Z,99805.56
2022-12-26T08:44:47.648Z,99800.19
2022-12-26T08:47:17.660Z,99802.88
2022-12-26T08:49:47.200Z,99794.84
2022-12-26T08:52:16.092Z,99803.88
2022-12-26T08:54:45.244Z,99800.19
2022-12-26T08:57:14.474Z,99800.19
2022-12-26T08:59:45.114Z,99739.41
2022-12-26T09:02:13.818Z,99805.56
2022-12-26T09:04:42.714Z,99794.84
2022-12-26T09:07:11.846Z,99800.19
2022-12-26T09:09:40.881Z,99796.84
2022-12-26T09:12:09.974Z,99794.00
2022-12-26T09:14:39.039Z,99786.78
2022-12-26T09:17:10.213Z,99782.44
2022-12-26T09:19:39.403Z,99788.66
2022-12-26T09:22:26.609Z,99793.16
2022-12-26T09:24:57.458Z,99784.25
2022-12-26T09:27:27.065Z,99782.44
2022-12-26T09:29:56.102Z,99776.06
2022-12-26T09:32:27.919Z,99777.06
2022-12-26T09:34:57.088Z,99771.72
2022-12-26T09:37:26.286Z,99766.34
2022-12-26T09:39:55.097Z,99769.03
2022-12-26T09:42:33.460Z,99765.34
2022-12-26T09:45:10.637Z,99763.50
2022-12-26T09:47:49.925Z,99674.25
2022-12-26T09:50:26.498Z,99751.94
2022-12-26T09:52:59.059Z,99751.94
2022-12-26T09:55:39.471Z,99751.09
2022-12-26T09:58:19.485Z,99744.91
2022-12-26T10:00:55.098Z,99735.50
2022-12-26T10:03:26.581Z,99737.88
2022-12-26T10:06:09.562Z,99731.50
2022-12-26T10:08:50.312Z,99729.66
2022-12-26T10:11:26.938Z,99727.13
2022-12-26T10:14:01.987Z,99721.78
2022-12-26T10:16:48.282Z,99714.72
2022-12-26T10:19:34.331Z,99707.34
2022-12-26T10:22:17.245Z,99696.78
2022-12-26T10:24:48.486Z,99705.69
2022-12-26T10:27:20.422Z,99696.63
2022-12-26T10:29:53.451Z,99690.41
2022-12-26T10:32:28.195Z,99685.91
2022-12-26T10:35:00.718Z,99694.97
2022-12-26T10:37:33.599Z,99692.94
2022-12-26T10:40:09.268Z,99691.25
2022-12-26T10:42:41.063Z,99685.91
2022-12-26T10:45:19.219Z,99688.56
2022-12-26T10:47:49.858Z,99692.94
2022-12-26T10:50:27.438Z,99684.22
2022-12-26T10:52:58.397Z,99689.25
2022-12-26T10:55:31.826Z,99687.56
2022-12-26T10:58:07.987Z,99678.03
2022-12-26T11:00:37.084Z,99690.25
2022-12-26T11:03:08.630Z,99618.66
2022-12-26T11:06:07.001Z,99676.84
2022-12-26T11:08:42.972Z,99672.31
2022-12-26T11:11:16.613Z,99666.13
2022-12-26T11:13:52.082Z,99666.13
2022-12-26T11:16:27.494Z,99661.09
2022-12-26T11:18:58.114Z,99585.13
2022-12-26T11:21:30.350Z,99679.69
2022-12-26T11:24:19.895Z,99669.81
2022-12-26T11:26:49.311Z,99671.47
2022-12-26T11:29:20.267Z,99662.44
2022-12-26T11:31:55.241Z,99576.59
2022-12-26T11:34:33.141Z,99648.03
2022-12-26T11:37:06.219Z,99639.31
2022-12-26T11:39:37.870Z,99633.94
2022-12-26T11:42:11.955Z,99558.88
2022-12-26T11:44:46.038Z,99626.56
2022-12-26T11:47:17.826Z,99614.19
2022-12-26T11:49:53.780Z,99609.81
2022-12-26T11:52:38.223Z,99599.06
2022-12-26T11:55:30.994Z,99580.31
2022-12-26T11:58:02.208Z,99574.94
2022-12-26T12:00:32.183Z,99569.56
2022-12-26T12:03:01.267Z,99552.50
2022-12-26T12:05:40.366Z,99545.44
2022-12-26T12:08:33.316Z,99543.63
2022-12-26T12:11:23.860Z,99532.88
2022-12-26T12:14:12.556Z,99533.72
2022-12-26T12:16:52.576Z,99521.31
2022-12-26T12:19:36.254Z,99515.94
2022-12-26T12:22:15.891Z,99521.31
2022-12-26T12:25:02.907Z,99498.53
2022-12-26T12:27:35.363Z,99496.03
2022-12-26T12:30:20.024Z,99492.84
2022-12-26T12:33:05.523Z,99484.78
2022-12-26T12:35:44.140Z,99466.53
2022-12-26T12:38:28.452Z,99477.75
2022-12-26T12:41:12.913Z,99479.75
2022-12-26T12:43:47.233Z,99401.75
2022-12-26T12:46:25.421Z,99480.44
2022-12-26T12:49:17.262Z,99476.25
2022-12-26T12:51:53.257Z,99485.81
2022-12-26T12:54:37.959Z,99471.38
2022-12-26T12:57:19.403Z,99457.28
2022-12-26T12:59:59.101Z,99458.16
2022-12-26T13:02:34.471Z,99466.34
2022-12-26T13:05:17.195Z,99457.28
2022-12-26T13:07:53.197Z,99445.75
2022-12-26T13:10:27.328Z,99452.78
2022-12-26T13:13:00.151Z,99442.91
2022-12-26T13:15:36.464Z,99427.81
2022-12-26T13:18:10.221Z,99432.19
2022-12-26T13:20:43.879Z,99423.97
2022-12-26T13:23:36.725Z,99416.91
2022-12-26T13:26:14.053Z,99414.41
2022-12-26T13:29:06.210Z,99439.22
2022-12-26T13:31:37.089Z,99426.81
2022-12-26T13:34:10.169Z,99424.13
2022-12-26T13:36:45.591Z,99411.53
2022-12-26T13:39:44.228Z,99416.09
2022-12-26T13:42:51.168Z,99403.69
2022-12-26T13:45:51.487Z,99405.38
2022-12-26T13:49:10.205Z,99406.34
2022-12-26T13:51:49.045Z,99324.56
2022-12-26T13:54:18.836Z,99408.22
2022-12-26T13:57:23.408Z,99398.31
2022-12-26T14:00:20.619Z,99371.50
2022-12-26T14:03:25.558Z,99375.19
2022-12-26T14:06:21.171Z,99371.50
2022-12-26T14:09:08.189Z,99380.56
2022-12-26T14:11:54.555Z,99289.59
2022-12-26T14:14:35.349Z,99361.78
2022-12-26T14:17:17.214Z,99360.78
2022-12-26T14:20:00.580Z,99349.22
2022-12-26T14:22:42.306Z,99332.97
2022-12-26T14:25:23.350Z,99319.91
2022-12-26T14:27:57.936Z,99328.59
2022-12-26T14:30:32.426Z,99319.56
2022-12-26T14:33:20.492Z,99321.22
2022-12-26T14:36:00.291Z,99308.53
2022-12-26T14:38:46.356Z,99321.22
2022-12-26T14:41:32.334Z,99316.03
2022-12-26T14:44:12.502Z,99312.50
2022-12-26T14:47:03.476Z,99310.00
2022-12-26T14:49:44.078Z,99312.50
2022-12-26T14:52:41.192Z,99303.47
2022-12-26T14:55:50.766Z,99298.13
2022-12-26T14:58:44.842Z,99301.78
2022-12-26T15:01:46.418Z,99292.75
2022-12-26T15:04:50.036Z,99298.13
2022-12-26T15:07:45.737Z,99304.28
2022-12-26T15:10:38.268Z,99299.94
2022-12-26T15:13:40.031Z,99303.47
2022-12-26T15:16:29.891Z,99304.47
2022-12-26T15:19:26.862Z,99292.09
2022-12-26T15:22:19.536Z,99288.38
2022-12-26T15:25:19.680Z,99276.00
2022-12-26T15:28:26.148Z,99270.63
2022-12-26T15:31:28.923Z,99258.06
2022-12-26T15:34:05.470Z,99176.25
2022-12-26T15:36:46.065Z,99241.16
2022-12-26T15:39:26.229Z,99237.44
2022-12-26T15:42:04.990Z,99239.13
2022-12-26T15:44:45.002Z,99233.78
2022-12-26T15:47:21.832Z,99233.78
2022-12-26T15:50:11.082Z,99212.31
2022-12-26T15:52:49.196Z,99209.81
2022-12-26T15:55:32.175Z,99212.31
2022-12-26T15:58:08.268Z,99215.81
2022-12-26T16:00:40.583Z,99213.97
2022-12-26T16:03:28.544Z,99196.22
2022-12-26T16:06:04.191Z,99174.78
2022-12-26T16:09:04.306Z,99187.16
2022-12-26T16:11:45.112Z,99187.16
2022-12-26T16:14:25.956Z,99185.50
2022-12-26T16:16:54.821Z,99183.81
2022-12-26T16:19:26.461Z,99167.72
2022-12-26T16:22:20.162Z,99169.25
2022-12-26T16:24:51.740Z,99157.00
2022-12-26T16:27:23.465Z,99170.06
2022-12-26T16:29:55.299Z,99160.34
2022-12-26T16:32:30.923Z,99171.09
2022-12-26T16:35:00.483Z,99160.34
2022-12-26T16:37:32.580Z,99168.56
2022-12-26T16:40:22.581Z,99177.28
2022-12-26T16:43:01.258Z,99120.06
2022-12-26T16:45:34.376Z,99197.03
2022-12-26T16:48:04.693Z,99243.31
2022-12-26T16:50:36.523Z,99260.22
2022-12-26T16:53:13.639Z,99178.41
2022-12-26T16:55:48.158Z,99264.56
2022-12-26T16:58:22.740Z,99275.28
2022-12-26T17:01:07.794Z,99272.63
2022-12-26T17:03:43.201Z,99210.56
2022-12-26T17:06:16.072Z,99285.19
2022-12-26T17:08:51.381Z,99294.06
2022-12-26T17:11:28.236Z,99299.44
2022-12-26T17:13:58.381Z,99308.50
2022-12-26T17:16:30.406Z,99316.53
2022-12-26T17:19:12.948Z,99311.34
2022-12-26T17:21:42.177Z,99317.53
2022-12-26T17:24:27.144Z,99242.72
2022-12-26T17:27:11.694Z,99267.81
2022-12-26T17:29:53.799Z,99334.63
2022-12-26T17:32:33.868Z,99339.81
2022-12-26T17:35:06.463Z,99349.69
2022-12-26T17:37:35.443Z,99344.34
2022-12-26T17:40:24.271Z,99346.03
2022-12-26T17:42:56.749Z,99354.25
2022-12-26T17:45:28.608Z,99349.69
2022-12-26T17:47:59.280Z,99368.47
2022-12-26T17:50:35.556Z,99298.28
2022-12-26T17:53:07.538Z,99380.03
2022-12-26T17:55:38.300Z,99391.63
2022-12-26T17:58:07.668Z,99403.16
2022-12-26T18:00:36.619Z,99400.47
2022-12-26T18:03:06.005Z,99395.97
2022-12-26T18:05:35.347Z,99395.13
2022-12-26T18:08:04.638Z,99418.59
2022-12-26T18:10:36.617Z,99417.41
2022-12-26T18:13:11.690Z,99438.00
2022-12-26T18:15:41.091Z,99435.50
2022-12-26T18:18:17.720Z,99435.50
2022-12-26T18:20:46.448Z,99431.84
2022-12-26T18:23:15.183Z,99437.53
2022-12-26T18:25:44.637Z,99442.56
2022-12-26T18:28:17.522Z,99442.91
2022-12-26T18:30:47.175Z,99460.50
2022-12-26T18:33:16.418Z,99447.94
2022-12-26T18:35:48.438Z,99453.28
2022-12-26T18:38:19.090Z,99474.75
2022-12-26T18:40:50.940Z,99474.75
2022-12-26T18:43:21.876Z,99474.75
2022-12-26T18:45:51.966Z,99485.47
2022-12-26T18:48:22.030Z,99488.97
2022-12-26T18:50:50.931Z,99489.81
2022-12-26T18:53:20.543Z,99483.78
2022-12-26T18:55:50.628Z,99497.84
2022-12-26T18:58:30.578Z,99417.50
2022-12-26T19:01:05.382Z,99494.03
2022-12-26T19:03:35.385Z,99501.56
2022-12-26T19:06:04.428Z,99489.47
2022-12-26T19:08:33.232Z,99507.09
2022-12-26T19:11:04.038Z,99505.22
2022-12-26T19:13:36.749Z,99506.91
2022-12-26T19:16:05.792Z,99511.44
2022-12-26T19:18:35.756Z,99521.31
2022-12-26T19:21:05.441Z,99526.69
2022-12-26T19:23:34.717Z,99530.03
2022-12-26T19:26:11.233Z,99538.09
2022-12-26T19:28:43.352Z,99413.50
2022-12-26T19:31:17.370Z,99540.75
2022-12-26T19:33:46.839Z,99549.81
2022-12-26T19:36:16.475Z,99545.28
2022-12-26T19:38:45.576Z,99556.00
2022-12-26T19:41:17.655Z,99562.22
2022-12-26T19:43:49.320Z,99555.19
2022-12-26T19:46:18.939Z,99487.84
2022-12-26T19:48:58.122Z,99565.06
2022-12-26T19:51:28.184Z,99572.25
2022-12-26T19:53:57.519Z,99571.28
2022-12-26T19:56:29.289Z,99571.28
2022-12-26T19:59:01.938Z,99580.31
2022-12-26T20:01:35.408Z,99575.28
2022-12-26T20:04:07.447Z,99575.13
2022-12-26T20:06:44.938Z,99579.50
2022-12-26T20:09:20.629Z,99572.25
2022-12-26T20:11:59.710Z,99578.63
2022-12-26T20:14:34.337Z,99585.66
2022-12-26T20:17:05.469Z,99589.38
2022-12-26T20:19:37.383Z,99593.72
2022-12-26T20:22:09.194Z,99596.38
2022-12-26T20:24:38.616Z,99607.13
2022-12-26T20:27:08.248Z,99612.47
2022-12-26T20:29:40.947Z,99607.13
2022-12-26T20:32:11.555Z,99607.44
2022-12-26T20:34:41.228Z,99597.06
2022-12-26T20:37:11.448Z,99607.13
2022-12-26T20:39:41.291Z,99607.44
2022-12-26T20:42:11.625Z,99612.47
2022-12-26T20:44:47.374Z,99613.34
2022-12-26T20:47:17.852Z,99623.22
2022-12-26T20:49:47.861Z,99617.03
2022-12-26T20:52:17.623Z,99616.19
2022-12-26T20:54:47.396Z,99513.41
2022-12-26T20:57:16.628Z,99607.97
2022-12-26T20:59:47.521Z,99610.81
2022-12-26T21:02:16.574Z,99612.47
2022-12-26T21:04:45.718Z,99607.13
2022-12-26T21:07:14.957Z,99617.84
2022-12-26T21:09:46.419Z,99617.84
2022-12-26T21:12:16.625Z,99626.91
2022-12-26T21:14:47.779Z,99626.91
2022-12-26T21:17:19.371Z,99616.19
2022-12-26T21:19:48.634Z,99632.28
2022-12-26T21:22:18.083Z,99651.72
2022-12-26T21:24:47.588Z,99641.97
2022-12-26T21:27:21.252Z,99649.38
2022-12-26T21:29:52.084Z,99646.69
2022-12-26T21:32:21.397Z,99667.81
2022-12-26T21:34:53.319Z,99657.09
2022-12-26T21:37:44.638Z,99655.38
2022-12-26T21:40:16.005Z,99649.03
2022-12-26T21:42:47.010Z,99577.25
2022-12-26T21:45:20.483Z,99664.44
2022-12-26T21:47:50.259Z,99664.44
2022-12-26T21:50:21.403Z,99671.47
2022-12-26T21:52:50.128Z,99579.63
2022-12-26T21:55:29.563Z,99670.66
2022-12-26T21:58:00.505Z,99659.09
2022-12-26T22:00:36.695Z,99662.09
2022-12-26T22:03:23.893Z,99587.66
2022-12-26T22:05:55.357Z,99668.16
2022-12-26T22:08:26.197Z,99661.75
2022-12-26T22:11:11.545Z,99667.13
2022-12-26T22:13:47.668Z,99653.38
2022-12-26T22:16:22.696Z,99659.41
2022-12-26T22:18:52.680Z,99670.13
2022-12-26T22:21:26.724Z,99643.66
2022-12-26T22:23:57.426Z,99668.97
2022-12-26T22:26:28.559Z,99672.81
2022-12-26T22:28:59.603Z,99675.19
2022-12-26T22:31:34.014Z,99680.53
2022-12-26T22:34:06.353Z,99687.91
2022-12-26T22:36:37.997Z,99677.84
2022-12-26T22:39:08.800Z,99682.19
2022-12-26T22:41:39.619Z,99683.38
2022-12-26T22:44:10.651Z,99682.19
2022-12-26T22:46:57.258Z,99687.91
2022-12-26T22:49:27.273Z,99675.50
2022-12-26T22:51:57.662Z,99689.59
2022-12-26T22:54:27.420Z,99682.53
2022-12-26T22:56:58.289Z,99679.69
2022-12-26T23:00:06.297Z,99676.19
2022-12-26T23:02:21.830Z,99684.22
2022-12-26T23:04:52.678Z,99687.91
2022-12-26T23:07:28.991Z,99690.41
2022-12-26T23:09:59.228Z,99691.25
2022-12-26T23:12:48.523Z,99696.63
2022-12-26T23:15:22.622Z,99689.59
2022-12-26T23:18:18.210Z,99689.59
2022-12-26T23:21:05.853Z,99689.59
2022-12-26T23:23:35.688Z,99693.25
2022-12-26T23:26:05.957Z,99602.06
2022-12-26T23:28:52.454Z,99691.25
2022-12-26T23:31:22.471Z,99678.88
2022-12-26T23:34:00.331Z,99684.22
2022-12-26T23:36:29.587Z,99686.91
2022-12-26T23:38:58.458Z,99689.59
2022-12-26T23:41:28.571Z,99684.22
2022-12-26T23:43:57.781Z,99689.59
2022-12-26T23:46:26.797Z,99690.41
2022-12-26T23:48:58.290Z,99627.38
2022-12-26T23:51:27.285Z,99694.28
2022-12-26T23:53:56.014Z,99694.97
2022-12-26T23:56:25.386Z,99694.97
2022-12-26T23:58:53.994Z,99697.63
